sensor_id;sensor_type;location;lat;lon;timestamp;temperature;humidity
19252;DHT22;9760;50.944;5.304;2022-12-18T00:01:31;-4.80;99.90
19252;DHT22;9760;50.944;5.304;2022-12-18T00:04:00;-4.80;99.90
19252;DHT22;9760;50.944;5.304;2022-12-18T00:06:27;-4.80;99.90
19252;DHT22;9760;50.944;5.304;2022-12-18T00:08:55;-5.00;99.90
19252;DHT22;9760;50.944;5.304;2022-12-18T00:11:25;-4.90;99.90
19252;DHT22;9760;50.944;5.304;2022-12-18T00:13:54;-4.90;99.90
19252;DHT22;9760;50.944;5.304;2022-12-18T00:16:21;-5.00;99.90
19252;DHT22;9760;50.944;5.304;2022-12-18T00:18:48;-5.10;99.90
19252;DHT22;9760;50.944;5.304;2022-12-18T00:21:14;-5.20;99.90
19252;DHT22;9760;50.944;5.304;2022-12-18T00:23:42;-5.20;99.90
19252;DHT22;9760;50.944;5.304;2022-12-18T00:26:12;-5.20;99.90
19252;DHT22;9760;50.944;5.304;2022-12-18T00:28:38;-5.20;99.90
19252;DHT22;9760;50.944;5.304;2022-12-18T00:31:06;-5.30;99.90
19252;DHT22;9760;50.944;5.304;2022-12-18T00:33:32;-5.40;99.90
19252;DHT22;9760;50.944;5.304;2022-12-18T00:36:09;-5.40;99.90
19252;DHT22;9760;50.944;5.304;2022-12-18T00:38:35;-5.40;99.90
19252;DHT22;9760;50.944;5.304;2022-12-18T00:41:01;-5.50;99.90
19252;DHT22;9760;50.944;5.304;2022-12-18T00:43:27;-5.40;99.90
19252;DHT22;9760;50.944;5.304;2022-12-18T00:45:52;-5.30;99.90
19252;DHT22;9760;50.944;5.304;2022-12-18T00:48:18;-5.30;99.90
19252;DHT22;9760;50.944;5.304;2022-12-18T00:50:44;-5.20;99.90
19252;DHT22;9760;50.944;5.304;2022-12-18T00:53:10;-5.20;99.90
19252;DHT22;9760;50.944;5.304;2022-12-18T00:55:37;-5.20;99.90
19252;DHT22;9760;50.944;5.304;2022-12-18T00:58:04;-5.30;99.90
19252;DHT22;9760;50.944;5.304;2022-12-18T01:00:29;-5.30;99.90
19252;DHT22;9760;50.944;5.304;2022-12-18T01:02:55;-5.30;99.90
19252;DHT22;9760;50.944;5.304;2022-12-18T01:05:20;-5.30;99.90
19252;DHT22;9760;50.944;5.304;2022-12-18T01:07:46;-5.30;99.90
19252;DHT22;9760;50.944;5.304;2022-12-18T01:10:12;-5.40;99.90
19252;DHT22;9760;50.944;5.304;2022-12-18T01:12:38;-5.40;99.90
19252;DHT22;9760;50.944;5.304;2022-12-18T01:15:05;-5.50;99.90
19252;DHT22;9760;50.944;5.304;2022-12-18T01:17:32;-5.50;99.90
19252;DHT22;9760;50.944;5.304;2022-12-18T01:19:57;-5.50;99.90
19252;DHT22;9760;50.944;5.304;2022-12-18T01:22:23;-5.40;99.90
19252;DHT22;9760;50.944;5.304;2022-12-18T01:24:48;-5.40;99.90
19252;DHT22;9760;50.944;5.304;2022-12-18T01:27:14;-5.30;99.90
19252;DHT22;9760;50.944;5.304;2022-12-18T01:29:40;-5.30;99.90
19252;DHT22;9760;50.944;5.304;2022-12-18T01:32:05;-5.20;99.90
19252;DHT22;9760;50.944;5.304;2022-12-18T01:34:31;-5.20;99.90
19252;DHT22;9760;50.944;5.304;2022-12-18T01:36:56;-5.20;99.90
19252;DHT22;9760;50.944;5.304;2022-12-18T01:39:22;-5.20;99.90
19252;DHT22;9760;50.944;5.304;2022-12-18T01:41:48;-5.20;99.90
19252;DHT22;9760;50.944;5.304;2022-12-18T01:48:20;-5.40;99.90
19252;DHT22;9760;50.944;5.304;2022-12-18T01:50:38;-5.40;99.90
19252;DHT22;9760;50.944;5.304;2022-12-18T01:53:14;-5.40;99.90
19252;DHT22;9760;50.944;5.304;2022-12-18T01:55:45;-5.40;99.90
19252;DHT22;9760;50.944;5.304;2022-12-18T01:58:12;-5.40;99.90
19252;DHT22;9760;50.944;5.304;2022-12-18T02:00:37;-5.30;99.90
19252;DHT22;9760;50.944;5.304;2022-12-18T02:03:03;-5.40;99.90
19252;DHT22;9760;50.944;5.304;2022-12-18T02:08:31;-5.40;99.90
19252;DHT22;9760;50.944;5.304;2022-12-18T02:11:13;-5.40;99.90
19252;DHT22;9760;50.944;5.304;2022-12-18T02:13:46;-5.40;99.90
19252;DHT22;9760;50.944;5.304;2022-12-18T02:18:59;-5.40;99.90
19252;DHT22;9760;50.944;5.304;2022-12-18T02:21:46;-5.40;99.90
19252;DHT22;9760;50.944;5.304;2022-12-18T02:27:03;-5.40;99.90
19252;DHT22;9760;50.944;5.304;2022-12-18T02:29:39;-5.50;99.90
19252;DHT22;9760;50.944;5.304;2022-12-18T02:32:14;-5.50;99.90
19252;DHT22;9760;50.944;5.304;2022-12-18T02:34:41;-5.50;99.90
19252;DHT22;9760;50.944;5.304;2022-12-18T02:37:12;-5.50;99.90
19252;DHT22;9760;50.944;5.304;2022-12-18T02:39:41;-5.60;99.90
19252;DHT22;9760;50.944;5.304;2022-12-18T02:42:07;-5.60;99.90
19252;DHT22;9760;50.944;5.304;2022-12-18T02:44:44;-5.60;99.90
19252;DHT22;9760;50.944;5.304;2022-12-18T02:47:12;-5.60;99.90
19252;DHT22;9760;50.944;5.304;2022-12-18T02:57:55;-5.80;99.90
19252;DHT22;9760;50.944;5.304;2022-12-18T03:00:31;-5.80;99.90
19252;DHT22;9760;50.944;5.304;2022-12-18T03:03:01;-5.80;99.90
19252;DHT22;9760;50.944;5.304;2022-12-18T03:05:33;-5.90;99.90
19252;DHT22;9760;50.944;5.304;2022-12-18T03:08:19;-5.90;99.90
19252;DHT22;9760;50.944;5.304;2022-12-18T03:10:51;-5.90;99.90
19252;DHT22;9760;50.944;5.304;2022-12-18T03:13:24;-5.90;99.90
19252;DHT22;9760;50.944;5.304;2022-12-18T03:15:53;-6.00;99.90
19252;DHT22;9760;50.944;5.304;2022-12-18T03:19:27;-6.00;99.90
19252;DHT22;9760;50.944;5.304;2022-12-18T03:21:28;-6.00;99.90
19252;DHT22;9760;50.944;5.304;2022-12-18T03:23:55;-6.00;99.90
19252;DHT22;9760;50.944;5.304;2022-12-18T03:26:25;-6.00;99.90
19252;DHT22;9760;50.944;5.304;2022-12-18T03:29:00;-6.00;99.90
19252;DHT22;9760;50.944;5.304;2022-12-18T03:31:29;-6.00;99.90
19252;DHT22;9760;50.944;5.304;2022-12-18T03:34:04;-6.00;99.90
19252;DHT22;9760;50.944;5.304;2022-12-18T03:36:31;-6.00;99.90
19252;DHT22;9760;50.944;5.304;2022-12-18T03:38:58;-6.00;99.90
19252;DHT22;9760;50.944;5.304;2022-12-18T03:41:46;-6.10;99.90
19252;DHT22;9760;50.944;5.304;2022-12-18T03:44:41;-6.10;99.90
19252;DHT22;9760;50.944;5.304;2022-12-18T03:47:17;-6.10;99.90
19252;DHT22;9760;50.944;5.304;2022-12-18T03:49:54;-6.10;99.90
19252;DHT22;9760;50.944;5.304;2022-12-18T03:54:52;-6.20;99.90
19252;DHT22;9760;50.944;5.304;2022-12-18T03:57:21;-6.20;99.90
19252;DHT22;9760;50.944;5.304;2022-12-18T03:59:51;-6.20;99.90
19252;DHT22;9760;50.944;5.304;2022-12-18T04:02:21;-6.20;99.90
19252;DHT22;9760;50.944;5.304;2022-12-18T04:04:53;-6.20;99.90
19252;DHT22;9760;50.944;5.304;2022-12-18T04:07:21;-6.30;99.90
19252;DHT22;9760;50.944;5.304;2022-12-18T04:09:48;-6.30;99.90
19252;DHT22;9760;50.944;5.304;2022-12-18T04:12:15;-6.30;99.90
19252;DHT22;9760;50.944;5.304;2022-12-18T04:14:41;-6.30;99.90
19252;DHT22;9760;50.944;5.304;2022-12-18T04:17:06;-6.30;99.90
19252;DHT22;9760;50.944;5.304;2022-12-18T04:19:32;-6.40;99.90
19252;DHT22;9760;50.944;5.304;2022-12-18T04:21:58;-6.40;99.90
19252;DHT22;9760;50.944;5.304;2022-12-18T04:24:23;-6.30;99.90
19252;DHT22;9760;50.944;5.304;2022-12-18T04:26:49;-6.30;99.90
19252;DHT22;9760;50.944;5.304;2022-12-18T04:29:15;-6.30;99.90
19252;DHT22;9760;50.944;5.304;2022-12-18T04:31:40;-6.30;99.90
19252;DHT22;9760;50.944;5.304;2022-12-18T04:34:06;-6.30;99.90
19252;DHT22;9760;50.944;5.304;2022-12-18T04:36:32;-6.40;99.90
19252;DHT22;9760;50.944;5.304;2022-12-18T04:38:57;-6.50;99.90
19252;DHT22;9760;50.944;5.304;2022-12-18T04:41:23;-6.60;99.90
19252;DHT22;9760;50.944;5.304;2022-12-18T04:43:48;-6.60;99.90
19252;DHT22;9760;50.944;5.304;2022-12-18T04:46:14;-6.60;99.90
19252;DHT22;9760;50.944;5.304;2022-12-18T04:48:40;-6.60;99.90
19252;DHT22;9760;50.944;5.304;2022-12-18T04:51:06;-6.50;99.90
19252;DHT22;9760;50.944;5.304;2022-12-18T04:53:32;-6.50;99.90
19252;DHT22;9760;50.944;5.304;2022-12-18T04:56:09;-6.50;99.90
19252;DHT22;9760;50.944;5.304;2022-12-18T04:58:36;-6.50;99.90
19252;DHT22;9760;50.944;5.304;2022-12-18T05:01:02;-6.50;99.90
19252;DHT22;9760;50.944;5.304;2022-12-18T05:03:29;-6.60;99.90
19252;DHT22;9760;50.944;5.304;2022-12-18T05:05:54;-6.80;99.90
19252;DHT22;9760;50.944;5.304;2022-12-18T05:08:20;-6.80;99.90
19252;DHT22;9760;50.944;5.304;2022-12-18T05:10:46;-7.00;99.90
19252;DHT22;9760;50.944;5.304;2022-12-18T05:13:11;-6.80;99.90
19252;DHT22;9760;50.944;5.304;2022-12-18T05:15:37;-6.80;99.90
19252;DHT22;9760;50.944;5.304;2022-12-18T05:18:03;-6.90;99.90
19252;DHT22;9760;50.944;5.304;2022-12-18T05:20:29;-6.90;99.90
19252;DHT22;9760;50.944;5.304;2022-12-18T05:22:55;-6.80;99.90
19252;DHT22;9760;50.944;5.304;2022-12-18T05:25:21;-6.80;99.90
19252;DHT22;9760;50.944;5.304;2022-12-18T05:27:47;-6.70;99.90
19252;DHT22;9760;50.944;5.304;2022-12-18T05:30:14;-6.60;99.90
19252;DHT22;9760;50.944;5.304;2022-12-18T05:32:40;-6.60;99.90
19252;DHT22;9760;50.944;5.304;2022-12-18T05:35:07;-6.60;99.90
19252;DHT22;9760;50.944;5.304;2022-12-18T05:37:33;-6.60;99.90
19252;DHT22;9760;50.944;5.304;2022-12-18T05:39:59;-6.60;99.90
19252;DHT22;9760;50.944;5.304;2022-12-18T05:42:25;-6.60;99.90
19252;DHT22;9760;50.944;5.304;2022-12-18T05:44:50;-6.60;99.90
19252;DHT22;9760;50.944;5.304;2022-12-18T05:47:16;-6.50;99.90
19252;DHT22;9760;50.944;5.304;2022-12-18T05:49:42;-6.60;99.90
19252;DHT22;9760;50.944;5.304;2022-12-18T05:52:07;-6.60;99.90
19252;DHT22;9760;50.944;5.304;2022-12-18T05:54:33;-6.60;99.90
19252;DHT22;9760;50.944;5.304;2022-12-18T05:56:58;-6.60;99.90
19252;DHT22;9760;50.944;5.304;2022-12-18T05:59:24;-6.60;99.90
19252;DHT22;9760;50.944;5.304;2022-12-18T06:01:50;-6.60;99.90
19252;DHT22;9760;50.944;5.304;2022-12-18T06:04:15;-6.70;99.90
19252;DHT22;9760;50.944;5.304;2022-12-18T06:06:41;-6.70;99.90
19252;DHT22;9760;50.944;5.304;2022-12-18T06:09:07;-6.70;99.90
19252;DHT22;9760;50.944;5.304;2022-12-18T06:11:35;-6.70;99.90
19252;DHT22;9760;50.944;5.304;2022-12-18T06:14:02;-6.70;99.90
19252;DHT22;9760;50.944;5.304;2022-12-18T06:16:28;-6.80;99.90
19252;DHT22;9760;50.944;5.304;2022-12-18T06:19:02;-6.90;99.90
19252;DHT22;9760;50.944;5.304;2022-12-18T06:21:28;-6.90;99.90
19252;DHT22;9760;50.944;5.304;2022-12-18T06:23:54;-6.90;99.90
19252;DHT22;9760;50.944;5.304;2022-12-18T06:26:20;-6.80;99.90
19252;DHT22;9760;50.944;5.304;2022-12-18T06:28:45;-6.90;99.90
19252;DHT22;9760;50.944;5.304;2022-12-18T06:31:11;-6.90;99.90
19252;DHT22;9760;50.944;5.304;2022-12-18T06:33:37;-6.90;99.90
19252;DHT22;9760;50.944;5.304;2022-12-18T06:36:05;-6.80;99.90
19252;DHT22;9760;50.944;5.304;2022-12-18T06:38:33;-6.80;99.90
19252;DHT22;9760;50.944;5.304;2022-12-18T06:40:59;-6.70;99.90
19252;DHT22;9760;50.944;5.304;2022-12-18T06:43:24;-6.70;99.90
19252;DHT22;9760;50.944;5.304;2022-12-18T06:45:50;-6.60;99.90
19252;DHT22;9760;50.944;5.304;2022-12-18T06:48:19;-6.60;99.90
19252;DHT22;9760;50.944;5.304;2022-12-18T06:50:45;-6.60;99.90
19252;DHT22;9760;50.944;5.304;2022-12-18T06:53:11;-6.60;99.90
19252;DHT22;9760;50.944;5.304;2022-12-18T06:55:37;-6.60;99.90
19252;DHT22;9760;50.944;5.304;2022-12-18T06:58:02;-6.70;99.90
19252;DHT22;9760;50.944;5.304;2022-12-18T07:00:28;-6.60;99.90
19252;DHT22;9760;50.944;5.304;2022-12-18T07:02:53;-6.60;99.90
19252;DHT22;9760;50.944;5.304;2022-12-18T07:05:19;-6.60;99.90
19252;DHT22;9760;50.944;5.304;2022-12-18T07:07:44;-6.60;99.90
19252;DHT22;9760;50.944;5.304;2022-12-18T07:10:10;-6.60;99.90
19252;DHT22;9760;50.944;5.304;2022-12-18T07:12:36;-6.60;99.90
19252;DHT22;9760;50.944;5.304;2022-12-18T07:15:02;-6.70;99.90
19252;DHT22;9760;50.944;5.304;2022-12-18T07:17:28;-6.70;99.90
19252;DHT22;9760;50.944;5.304;2022-12-18T07:19:54;-6.80;99.90
19252;DHT22;9760;50.944;5.304;2022-12-18T07:22:20;-7.00;99.90
19252;DHT22;9760;50.944;5.304;2022-12-18T07:24:46;-7.10;99.90
19252;DHT22;9760;50.944;5.304;2022-12-18T07:27:15;-7.20;99.90
19252;DHT22;9760;50.944;5.304;2022-12-18T07:29:41;-7.10;99.90
19252;DHT22;9760;50.944;5.304;2022-12-18T07:32:09;-7.10;99.90
19252;DHT22;9760;50.944;5.304;2022-12-18T07:34:35;-7.00;99.90
19252;DHT22;9760;50.944;5.304;2022-12-18T07:37:01;-6.80;99.90
19252;DHT22;9760;50.944;5.304;2022-12-18T07:39:26;-6.80;99.90
19252;DHT22;9760;50.944;5.304;2022-12-18T07:41:52;-6.70;99.90
19252;DHT22;9760;50.944;5.304;2022-12-18T07:44:36;-6.70;99.90
19252;DHT22;9760;50.944;5.304;2022-12-18T07:47:02;-6.70;99.90
19252;DHT22;9760;50.944;5.304;2022-12-18T07:49:28;-6.60;99.90
19252;DHT22;9760;50.944;5.304;2022-12-18T07:51:55;-6.60;99.90
19252;DHT22;9760;50.944;5.304;2022-12-18T07:54:22;-6.70;99.90
19252;DHT22;9760;50.944;5.304;2022-12-18T07:56:48;-6.60;99.90
19252;DHT22;9760;50.944;5.304;2022-12-18T07:59:13;-6.60;99.90
19252;DHT22;9760;50.944;5.304;2022-12-18T08:01:39;-6.50;99.90
19252;DHT22;9760;50.944;5.304;2022-12-18T08:04:04;-6.40;99.90
19252;DHT22;9760;50.944;5.304;2022-12-18T08:06:30;-6.40;99.90
19252;DHT22;9760;50.944;5.304;2022-12-18T08:08:56;-6.30;99.90
19252;DHT22;9760;50.944;5.304;2022-12-18T08:11:23;-6.20;99.90
19252;DHT22;9760;50.944;5.304;2022-12-18T08:13:49;-6.20;99.90
19252;DHT22;9760;50.944;5.304;2022-12-18T08:16:15;-6.10;99.90
19252;DHT22;9760;50.944;5.304;2022-12-18T08:18:41;-6.00;99.90
19252;DHT22;9760;50.944;5.304;2022-12-18T08:21:10;-5.90;99.90
19252;DHT22;9760;50.944;5.304;2022-12-18T08:23:36;-5.80;99.90
19252;DHT22;9760;50.944;5.304;2022-12-18T08:26:02;-5.70;99.90
19252;DHT22;9760;50.944;5.304;2022-12-18T08:28:28;-5.80;99.90
19252;DHT22;9760;50.944;5.304;2022-12-18T08:30:53;-5.70;99.90
19252;DHT22;9760;50.944;5.304;2022-12-18T08:33:19;-5.70;99.90
19252;DHT22;9760;50.944;5.304;2022-12-18T08:35:44;-5.60;99.90
19252;DHT22;9760;50.944;5.304;2022-12-18T08:38:10;-5.60;99.90
19252;DHT22;9760;50.944;5.304;2022-12-18T08:40:36;-5.50;99.90
19252;DHT22;9760;50.944;5.304;2022-12-18T08:43:01;-5.50;99.90
19252;DHT22;9760;50.944;5.304;2022-12-18T08:45:45;-5.30;99.90
19252;DHT22;9760;50.944;5.304;2022-12-18T08:48:11;-5.30;99.90
19252;DHT22;9760;50.944;5.304;2022-12-18T08:50:36;-5.10;99.90
19252;DHT22;9760;50.944;5.304;2022-12-18T08:53:02;-5.10;99.90
19252;DHT22;9760;50.944;5.304;2022-12-18T08:55:28;-4.90;99.90
19252;DHT22;9760;50.944;5.304;2022-12-18T08:57:54;-4.70;99.90
19252;DHT22;9760;50.944;5.304;2022-12-18T09:00:19;-4.70;99.90
19252;DHT22;9760;50.944;5.304;2022-12-18T09:02:45;-4.70;99.90
19252;DHT22;9760;50.944;5.304;2022-12-18T09:05:11;-4.60;99.90
19252;DHT22;9760;50.944;5.304;2022-12-18T09:07:36;-4.60;99.90
19252;DHT22;9760;50.944;5.304;2022-12-18T09:10:02;-4.60;99.90
19252;DHT22;9760;50.944;5.304;2022-12-18T09:12:28;-4.50;99.90
19252;DHT22;9760;50.944;5.304;2022-12-18T09:14:53;-4.50;99.90
19252;DHT22;9760;50.944;5.304;2022-12-18T09:17:19;-4.60;99.90
19252;DHT22;9760;50.944;5.304;2022-12-18T09:19:45;-4.50;99.90
19252;DHT22;9760;50.944;5.304;2022-12-18T09:22:10;-4.50;99.90
19252;DHT22;9760;50.944;5.304;2022-12-18T09:24:36;-4.30;99.90
19252;DHT22;9760;50.944;5.304;2022-12-18T09:27:01;-4.30;99.90
19252;DHT22;9760;50.944;5.304;2022-12-18T09:29:27;-4.40;99.90
19252;DHT22;9760;50.944;5.304;2022-12-18T09:31:53;-4.40;99.90
19252;DHT22;9760;50.944;5.304;2022-12-18T09:34:18;-4.30;99.90
19252;DHT22;9760;50.944;5.304;2022-12-18T09:36:46;-4.20;99.90
19252;DHT22;9760;50.944;5.304;2022-12-18T09:39:12;-4.10;99.90
19252;DHT22;9760;50.944;5.304;2022-12-18T09:41:47;-4.00;99.90
19252;DHT22;9760;50.944;5.304;2022-12-18T09:44:39;-4.00;99.90
19252;DHT22;9760;50.944;5.304;2022-12-18T09:47:13;-4.00;99.90
19252;DHT22;9760;50.944;5.304;2022-12-18T09:49:46;-3.80;99.90
19252;DHT22;9760;50.944;5.304;2022-12-18T09:52:23;-3.50;99.90
19252;DHT22;9760;50.944;5.304;2022-12-18T09:54:59;-3.50;99.90
19252;DHT22;9760;50.944;5.304;2022-12-18T09:57:31;-3.30;99.90
19252;DHT22;9760;50.944;5.304;2022-12-18T10:02:36;-2.90;99.90
19252;DHT22;9760;50.944;5.304;2022-12-18T10:05:09;-2.80;99.90
19252;DHT22;9760;50.944;5.304;2022-12-18T10:18:49;-2.60;99.90
19252;DHT22;9760;50.944;5.304;2022-12-18T10:21:24;-2.50;99.90
19252;DHT22;9760;50.944;5.304;2022-12-18T10:26:28;-2.40;99.90
19252;DHT22;9760;50.944;5.304;2022-12-18T10:28:57;-2.50;99.90
19252;DHT22;9760;50.944;5.304;2022-12-18T10:31:24;-2.50;99.90
19252;DHT22;9760;50.944;5.304;2022-12-18T10:33:50;-2.40;99.90
19252;DHT22;9760;50.944;5.304;2022-12-18T10:36:16;-2.50;99.90
19252;DHT22;9760;50.944;5.304;2022-12-18T10:38:42;-2.40;99.90
19252;DHT22;9760;50.944;5.304;2022-12-18T10:43:47;-2.40;99.90
19252;DHT22;9760;50.944;5.304;2022-12-18T10:46:19;-2.30;99.90
19252;DHT22;9760;50.944;5.304;2022-12-18T10:53:57;-2.10;99.90
19252;DHT22;9760;50.944;5.304;2022-12-18T10:56:27;-2.20;99.90
19252;DHT22;9760;50.944;5.304;2022-12-18T10:59:11;-2.10;99.90
19252;DHT22;9760;50.944;5.304;2022-12-18T11:01:55;-2.10;99.90
19252;DHT22;9760;50.944;5.304;2022-12-18T11:04:25;-2.10;99.90
19252;DHT22;9760;50.944;5.304;2022-12-18T11:06:58;-2.10;99.90
19252;DHT22;9760;50.944;5.304;2022-12-18T11:11:57;-2.00;99.90
19252;DHT22;9760;50.944;5.304;2022-12-18T11:14:30;-2.00;99.90
19252;DHT22;9760;50.944;5.304;2022-12-18T11:16:58;-1.90;99.90
19252;DHT22;9760;50.944;5.304;2022-12-18T11:19:34;-1.90;99.90
19252;DHT22;9760;50.944;5.304;2022-12-18T11:22:03;-2.00;99.90
19252;DHT22;9760;50.944;5.304;2022-12-18T11:24:34;-1.90;99.90
19252;DHT22;9760;50.944;5.304;2022-12-18T11:27:03;-1.80;99.90
19252;DHT22;9760;50.944;5.304;2022-12-18T11:29:35;-1.70;99.90
19252;DHT22;9760;50.944;5.304;2022-12-18T11:32:32;-1.60;99.90
19252;DHT22;9760;50.944;5.304;2022-12-18T11:35:16;-1.50;99.90
19252;DHT22;9760;50.944;5.304;2022-12-18T11:37:48;-1.40;99.90
19252;DHT22;9760;50.944;5.304;2022-12-18T11:40:18;-1.40;99.90
19252;DHT22;9760;50.944;5.304;2022-12-18T11:42:54;-1.30;99.90
19252;DHT22;9760;50.944;5.304;2022-12-18T11:47:56;-1.30;99.90
19252;DHT22;9760;50.944;5.304;2022-12-18T11:50:44;-1.30;99.90
19252;DHT22;9760;50.944;5.304;2022-12-18T11:53:12;-1.20;99.90
19252;DHT22;9760;50.944;5.304;2022-12-18T11:59:16;-1.00;99.90
19252;DHT22;9760;50.944;5.304;2022-12-18T12:02:17;-0.90;99.90
19252;DHT22;9760;50.944;5.304;2022-12-18T12:05:00;-0.90;99.90
19252;DHT22;9760;50.944;5.304;2022-12-18T12:07:39;-0.90;99.90
19252;DHT22;9760;50.944;5.304;2022-12-18T12:19:00;-0.60;99.90
19252;DHT22;9760;50.944;5.304;2022-12-18T12:21:46;-0.60;99.90
19252;DHT22;9760;50.944;5.304;2022-12-18T12:27:26;-0.40;99.90
19252;DHT22;9760;50.944;5.304;2022-12-18T12:30:30;-0.40;99.90
19252;DHT22;9760;50.944;5.304;2022-12-18T12:33:47;-0.30;99.90
19252;DHT22;9760;50.944;5.304;2022-12-18T12:38:20;-0.30;99.90
19252;DHT22;9760;50.944;5.304;2022-12-18T12:40:53;-0.30;99.90
19252;DHT22;9760;50.944;5.304;2022-12-18T12:43:32;-0.30;99.90
19252;DHT22;9760;50.944;5.304;2022-12-18T12:46:08;-0.20;99.90
19252;DHT22;9760;50.944;5.304;2022-12-18T12:48:46;-0.20;99.90
19252;DHT22;9760;50.944;5.304;2022-12-18T12:51:29;-0.10;99.90
19252;DHT22;9760;50.944;5.304;2022-12-18T12:53:58;-0.10;99.90
19252;DHT22;9760;50.944;5.304;2022-12-18T12:56:40;-0.10;99.90
19252;DHT22;9760;50.944;5.304;2022-12-18T12:59:35;-0.10;99.90
19252;DHT22;9760;50.944;5.304;2022-12-18T13:13:27;0.00;99.90
19252;DHT22;9760;50.944;5.304;2022-12-18T13:16:04;0.00;99.90
19252;DHT22;9760;50.944;5.304;2022-12-18T13:18:30;0.10;99.90
19252;DHT22;9760;50.944;5.304;2022-12-18T13:26:27;0.20;99.90
19252;DHT22;9760;50.944;5.304;2022-12-18T13:31:12;0.30;99.90
19252;DHT22;9760;50.944;5.304;2022-12-18T13:33:46;0.20;99.90
19252;DHT22;9760;50.944;5.304;2022-12-18T13:36:30;0.20;99.90
19252;DHT22;9760;50.944;5.304;2022-12-18T13:39:23;0.20;99.90
19252;DHT22;9760;50.944;5.304;2022-12-18T13:42:25;0.10;99.90
19252;DHT22;9760;50.944;5.304;2022-12-18T13:44:59;0.20;99.90
19252;DHT22;9760;50.944;5.304;2022-12-18T13:47:30;0.30;99.90
19252;DHT22;9760;50.944;5.304;2022-12-18T13:49:57;0.30;99.90
19252;DHT22;9760;50.944;5.304;2022-12-18T13:52:25;0.30;99.90
19252;DHT22;9760;50.944;5.304;2022-12-18T13:54:54;0.20;99.90
19252;DHT22;9760;50.944;5.304;2022-12-18T13:59:54;0.30;99.90
19252;DHT22;9760;50.944;5.304;2022-12-18T14:02:23;0.30;99.90
19252;DHT22;9760;50.944;5.304;2022-12-18T14:04:50;0.40;99.90
19252;DHT22;9760;50.944;5.304;2022-12-18T14:07:20;0.40;99.90
19252;DHT22;9760;50.944;5.304;2022-12-18T14:09:49;0.30;99.90
19252;DHT22;9760;50.944;5.304;2022-12-18T14:15:03;0.50;99.90
19252;DHT22;9760;50.944;5.304;2022-12-18T14:17:31;0.30;99.90
19252;DHT22;9760;50.944;5.304;2022-12-18T14:19:57;0.30;99.90
19252;DHT22;9760;50.944;5.304;2022-12-18T14:22:26;0.30;99.90
19252;DHT22;9760;50.944;5.304;2022-12-18T14:27:42;0.30;99.90
19252;DHT22;9760;50.944;5.304;2022-12-18T14:35:28;0.50;99.90
19252;DHT22;9760;50.944;5.304;2022-12-18T14:40:36;0.50;99.90
19252;DHT22;9760;50.944;5.304;2022-12-18T14:43:02;0.50;99.90
19252;DHT22;9760;50.944;5.304;2022-12-18T14:45:34;0.50;99.90
19252;DHT22;9760;50.944;5.304;2022-12-18T14:48:00;0.40;99.90
19252;DHT22;9760;50.944;5.304;2022-12-18T14:50:30;0.40;99.90
19252;DHT22;9760;50.944;5.304;2022-12-18T14:52:56;0.40;99.90
19252;DHT22;9760;50.944;5.304;2022-12-18T14:55:22;0.40;99.90
19252;DHT22;9760;50.944;5.304;2022-12-18T14:57:50;0.40;99.90
19252;DHT22;9760;50.944;5.304;2022-12-18T15:00:19;0.40;99.90
19252;DHT22;9760;50.944;5.304;2022-12-18T15:02:49;0.50;99.90
19252;DHT22;9760;50.944;5.304;2022-12-18T15:07:47;0.60;99.90
19252;DHT22;9760;50.944;5.304;2022-12-18T15:10:19;0.70;99.90
19252;DHT22;9760;50.944;5.304;2022-12-18T15:18:00;0.80;99.90
19252;DHT22;9760;50.944;5.304;2022-12-18T15:20:26;0.80;99.90
19252;DHT22;9760;50.944;5.304;2022-12-18T15:22:51;0.80;99.90
19252;DHT22;9760;50.944;5.304;2022-12-18T15:25:36;0.80;99.90
19252;DHT22;9760;50.944;5.304;2022-12-18T15:28:03;0.90;99.90
19252;DHT22;9760;50.944;5.304;2022-12-18T15:30:29;0.90;99.90
19252;DHT22;9760;50.944;5.304;2022-12-18T15:33:22;0.80;99.90
19252;DHT22;9760;50.944;5.304;2022-12-18T15:35:56;0.80;99.90
19252;DHT22;9760;50.944;5.304;2022-12-18T15:38:22;0.80;99.90
19252;DHT22;9760;50.944;5.304;2022-12-18T15:40:48;0.90;99.90
19252;DHT22;9760;50.944;5.304;2022-12-18T15:43:13;0.90;99.90
19252;DHT22;9760;50.944;5.304;2022-12-18T15:45:57;0.90;99.90
19252;DHT22;9760;50.944;5.304;2022-12-18T15:48:23;0.90;99.90
19252;DHT22;9760;50.944;5.304;2022-12-18T15:50:51;1.00;99.90
19252;DHT22;9760;50.944;5.304;2022-12-18T15:53:18;1.00;99.90
19252;DHT22;9760;50.944;5.304;2022-12-18T15:55:43;0.90;99.90
19252;DHT22;9760;50.944;5.304;2022-12-18T15:58:28;1.00;99.90
19252;DHT22;9760;50.944;5.304;2022-12-18T16:00:55;1.00;99.90
19252;DHT22;9760;50.944;5.304;2022-12-18T16:03:21;1.00;99.90
19252;DHT22;9760;50.944;5.304;2022-12-18T16:05:47;1.00;99.90
19252;DHT22;9760;50.944;5.304;2022-12-18T16:08:12;1.10;99.90
19252;DHT22;9760;50.944;5.304;2022-12-18T16:10:38;1.00;99.90
19252;DHT22;9760;50.944;5.304;2022-12-18T16:13:04;1.00;99.90
19252;DHT22;9760;50.944;5.304;2022-12-18T16:15:29;1.00;99.90
19252;DHT22;9760;50.944;5.304;2022-12-18T16:17:56;1.10;99.90
19252;DHT22;9760;50.944;5.304;2022-12-18T16:20:22;1.10;99.90
19252;DHT22;9760;50.944;5.304;2022-12-18T16:22:48;1.00;99.90
19252;DHT22;9760;50.944;5.304;2022-12-18T16:25:32;1.10;99.90
19252;DHT22;9760;50.944;5.304;2022-12-18T16:27:58;1.10;99.90
19252;DHT22;9760;50.944;5.304;2022-12-18T16:30:26;1.10;99.90
19252;DHT22;9760;50.944;5.304;2022-12-18T16:32:54;1.10;99.90
19252;DHT22;9760;50.944;5.304;2022-12-18T16:35:20;1.10;99.90
19252;DHT22;9760;50.944;5.304;2022-12-18T16:37:46;1.10;99.90
19252;DHT22;9760;50.944;5.304;2022-12-18T16:40:13;1.10;99.90
19252;DHT22;9760;50.944;5.304;2022-12-18T16:42:40;1.10;99.90
19252;DHT22;9760;50.944;5.304;2022-12-18T16:45:10;1.10;99.90
19252;DHT22;9760;50.944;5.304;2022-12-18T16:47:36;1.20;99.90
19252;DHT22;9760;50.944;5.304;2022-12-18T16:50:03;1.20;99.90
19252;DHT22;9760;50.944;5.304;2022-12-18T16:52:29;1.20;99.90
19252;DHT22;9760;50.944;5.304;2022-12-18T16:54:55;1.20;99.90
19252;DHT22;9760;50.944;5.304;2022-12-18T16:57:20;1.20;99.90
19252;DHT22;9760;50.944;5.304;2022-12-18T16:59:47;1.20;99.90
19252;DHT22;9760;50.944;5.304;2022-12-18T17:02:21;1.20;99.90
19252;DHT22;9760;50.944;5.304;2022-12-18T17:04:47;1.30;99.90
19252;DHT22;9760;50.944;5.304;2022-12-18T17:07:14;1.20;99.90
19252;DHT22;9760;50.944;5.304;2022-12-18T17:09:40;1.30;99.90
19252;DHT22;9760;50.944;5.304;2022-12-18T17:12:06;1.30;99.90
19252;DHT22;9760;50.944;5.304;2022-12-18T17:14:32;1.30;99.90
19252;DHT22;9760;50.944;5.304;2022-12-18T17:16:58;1.30;99.90
19252;DHT22;9760;50.944;5.304;2022-12-18T17:19:28;1.30;99.90
19252;DHT22;9760;50.944;5.304;2022-12-18T17:21:54;1.30;99.90
19252;DHT22;9760;50.944;5.304;2022-12-18T17:24:20;1.30;99.90
19252;DHT22;9760;50.944;5.304;2022-12-18T17:26:46;1.30;99.90
19252;DHT22;9760;50.944;5.304;2022-12-18T17:29:15;1.30;99.90
19252;DHT22;9760;50.944;5.304;2022-12-18T17:31:41;1.40;99.90
19252;DHT22;9760;50.944;5.304;2022-12-18T17:34:07;1.40;99.90
19252;DHT22;9760;50.944;5.304;2022-12-18T17:36:33;1.40;99.90
19252;DHT22;9760;50.944;5.304;2022-12-18T17:39:00;1.40;99.90
19252;DHT22;9760;50.944;5.304;2022-12-18T17:41:27;1.30;99.90
19252;DHT22;9760;50.944;5.304;2022-12-18T17:43:55;1.40;99.90
19252;DHT22;9760;50.944;5.304;2022-12-18T17:46:21;1.40;99.90
19252;DHT22;9760;50.944;5.304;2022-12-18T17:48:47;1.40;99.90
19252;DHT22;9760;50.944;5.304;2022-12-18T17:51:13;1.40;99.90
19252;DHT22;9760;50.944;5.304;2022-12-18T17:53:40;1.40;99.90
19252;DHT22;9760;50.944;5.304;2022-12-18T17:56:06;1.40;99.90